Queen City, Ohio
Current Conditions -  °F | °C
As of 10:53 PM on Monday 22 Dec 2014 (Local Time) from KI69 Reporting Station
Broken Clouds Broken Clouds  
Wind Chill: 45°   Ceiling: 12000
Heat Index: 48°   Visibility: 10mi
Dew Point: 39°   Wind: 7mph
Humidity: 71%   Direction: 120°ESE
Pressure: 29.73"   Gusts: NA
Location:  39.0938°N, 84.574°W
Report Text: KI69 230353Z AUTO 12006KT 10SM SCT075 SCT095 BKN120 09/04 A2973 RMK AO1
Loading
Personal Weather Stations






























Interactive Weather Map New forecast layout! Learn more

10-Day Weather Forecast

Advertisements
Track Severe Weather on mobile